CCGS Samuel Risley — CG2960 — position and weather

sailwx.info

Track history (hours):
 
Tides and Currents Weather Stations Pressure Air Temp Water Temp Dewpoint Dewpoint Depression Visibility Wind Speed Wind Dir Waves Ship Positions

CCGS Samuel Risley (Canada)

Medium Navaids Tender - Light Icebreaker

Last reported at 2016-Mar-20 15:08 UTC. Time now 2016-May-03 06:54 UTC.
Position N 46°08' W 084°01'.
Warning: this ship's position is 43 days out of date.

Length 69.73 m; beam 13.7 m; draft 5.2 m.

Type: SAR. MMSI: 316001890.

Date/timePositionNaut miles runAvg speedWind from/ knotsBaromVisibWave heightAir tempDewpointWater temp
2016-Mar-20 15:08N 46°08' W 084°01'10 9.6
2016-Mar-20 14:06N 45°60' W 083°53'  
2016-Mar-15 12:29N 42°48' W 082°29'3 3.1
2016-Mar-15 11:33N 42°45' W 082°28'0 0.0
2016-Mar-15 10:24N 42°45' W 082°28'0 0.0
2016-Mar-15 09:33N 42°45' W 082°28'0 0.0
2016-Mar-15 08:33N 42°45' W 082°28'0 0.0
2016-Mar-15 07:30N 42°45' W 082°28'0 0.0
2016-Mar-15 06:33N 42°45' W 082°28'0 0.0
2016-Mar-15 05:33N 42°45' W 082°28'0 0.0
2016-Mar-15 04:33N 42°45' W 082°28'0 0.0
2016-Mar-15 03:32N 42°45' W 082°28'0 0.0
2016-Mar-15 02:32N 42°45' W 082°28'0 0.0
2016-Mar-15 01:32N 42°45' W 082°28'0 0.0
2016-Mar-15 00:33N 42°45' W 082°28'4 4.2
2016-Mar-14 23:33N 42°42' W 082°30'5 5.4
2016-Mar-14 22:33N 42°36' W 082°32'2 2.2
2016-Mar-14 21:32N 42°35' W 082°34'2 2.2
2016-Mar-14 20:33N 42°33' W 082°36'4 4.1
2016-Mar-14 19:33N 42°31' W 082°40'7 6.9
2016-Mar-14 18:33N 42°35' W 082°33'7 6.7
2016-Mar-14 17:31N 42°42' W 082°30'5 0.2
2016-Mar-13 15:33N 42°47' W 082°28'12 0.5
2016-Mar-12 15:19N 42°59' W 082°25'0 0.0
2016-Mar-12 14:33N 42°59' W 082°25'0 0.0
2016-Mar-12 13:33N 42°59' W 082°25'0 0.0
2016-Mar-12 12:29N 42°59' W 082°25'  
Track history (hours):
 
Tides and Currents Weather Stations Pressure Air Temp Water Temp Dewpoint Dewpoint Depression Visibility Wind Speed Wind Dir Waves Ship Positions

CCGS Samuel Risley (Canada)

Medium Navaids Tender - Light Icebreaker

Last reported at 2016-Mar-20 15:08 UTC. Time now 2016-May-03 06:54 UTC.
Position N 46°08' W 084°01'.
Warning: this ship's position is 43 days out of date.

Length 69.73 m; beam 13.7 m; draft 5.2 m.

Type: SAR. MMSI: 316001890.

Date/timePositionNaut miles runAvg speedWind from/ knotsBaromVisibWave heightAir tempDewpointWater temp
2016-Mar-20 15:08N 46°08' W 084°01'10 9.6
2016-Mar-20 14:06N 45°60' W 083°53'  
2016-Mar-15 12:29N 42°48' W 082°29'3 3.1
2016-Mar-15 11:33N 42°45' W 082°28'0 0.0
2016-Mar-15 10:24N 42°45' W 082°28'0 0.0
2016-Mar-15 09:33N 42°45' W 082°28'0 0.0
2016-Mar-15 08:33N 42°45' W 082°28'0 0.0
2016-Mar-15 07:30N 42°45' W 082°28'0 0.0
2016-Mar-15 06:33N 42°45' W 082°28'0 0.0
2016-Mar-15 05:33N 42°45' W 082°28'0 0.0
2016-Mar-15 04:33N 42°45' W 082°28'0 0.0
2016-Mar-15 03:32N 42°45' W 082°28'0 0.0
2016-Mar-15 02:32N 42°45' W 082°28'0 0.0
2016-Mar-15 01:32N 42°45' W 082°28'0 0.0
2016-Mar-15 00:33N 42°45' W 082°28'4 4.2
2016-Mar-14 23:33N 42°42' W 082°30'5 5.4
2016-Mar-14 22:33N 42°36' W 082°32'2 2.2
2016-Mar-14 21:32N 42°35' W 082°34'2 2.2
2016-Mar-14 20:33N 42°33' W 082°36'4 4.1
2016-Mar-14 19:33N 42°31' W 082°40'7 6.9
2016-Mar-14 18:33N 42°35' W 082°33'7 6.7
2016-Mar-14 17:31N 42°42' W 082°30'5 0.2
2016-Mar-13 15:33N 42°47' W 082°28'12 0.5
2016-Mar-12 15:19N 42°59' W 082°25'0 0.0
2016-Mar-12 14:33N 42°59' W 082°25'0 0.0
2016-Mar-12 13:33N 42°59' W 082°25'0 0.0
2016-Mar-12 12:29N 42°59' W 082°25'  

Dump ship's entire track history